Archival Weather

Half Moon Bay

Half Moon Bay, California (KHAF)

Report from: Thursday, September 21, 2023 6:35 AM PDT
Current time: Tuesday, February 27, 2024 3:17 AM PST

Current weather – Weather history – Daily summaries
Weather forecast

Temperature12.0°C (53.6°F)
Dew point10.0°C (50.0°F)
Winds Calm
Visibility5 mi. (8 km)
Altimeter29.87 in.Hg (1012 mB)
Relative humidity88 %
Density altitude-125 ft. (-38 m)
Remarks Fully automated report
Automated weather observing station with precipitation discriminator
Flight conditions Visual Meteorological Conditions
Raw dataKHAF 211335Z AUTO 00000KT 5SM BR 12/10 A2987 RMK AO2
An error has occurred. This application may no longer respond until reloaded. Reload 🗙